Pallada — UDUI — position and weather

sailwx.info

Track history (hours):
 
Tides and Currents Weather Stations Pressure Air Temp Water Temp Dewpoint Dewpoint Depression Visibility Wind Speed Wind Dir Waves Ship Positions

Pallada

Last reported at 2015-Jun-06 14:12 UTC. Time now 2015-Jul-03 12:18 UTC.
Position N 33°54' E 129°16'.
Warning: this ship's position is 26 days out of date.

Length 109 m; draft 6.7 m.

Type: Sailing vessel. MMSI: 273815200.

Date/timePositionNaut miles runAvg speedWind from/ knotsBaromVisibWave heightAir tempDewpointWater temp
2015-Jun-06 14:12N 33°54' E 129°16'48 1.0
2015-Jun-04 13:25N 33°29' E 128°28'1 0.9
2015-Jun-04 12:18N 33°28' E 128°29'1 0.9
2015-Jun-04 11:33N 33°28' E 128°30'1 0.9
2015-Jun-04 10:33N 33°28' E 128°31'1 0.9
2015-Jun-04 09:32N 33°28' E 128°32'5 0.3
2015-Jun-03 16:32N 33°33' E 128°34'0 0.4
2015-Jun-03 15:31N 33°33' E 128°35'0 0.4
2015-Jun-03 14:32N 33°33' E 128°35'1 0.5
2015-Jun-03 13:32N 33°33' E 128°36'  
2015-May-28 10:33N 38°50' E 121°47'  
Track history (hours):
 
Tides and Currents Weather Stations Pressure Air Temp Water Temp Dewpoint Dewpoint Depression Visibility Wind Speed Wind Dir Waves Ship Positions

Pallada

Last reported at 2015-Jun-06 14:12 UTC. Time now 2015-Jul-03 12:18 UTC.
Position N 33°54' E 129°16'.
Warning: this ship's position is 26 days out of date.

Length 109 m; draft 6.7 m.

Type: Sailing vessel. MMSI: 273815200.

Date/timePositionNaut miles runAvg speedWind from/ knotsBaromVisibWave heightAir tempDewpointWater temp
2015-Jun-06 14:12N 33°54' E 129°16'48 1.0
2015-Jun-04 13:25N 33°29' E 128°28'1 0.9
2015-Jun-04 12:18N 33°28' E 128°29'1 0.9
2015-Jun-04 11:33N 33°28' E 128°30'1 0.9
2015-Jun-04 10:33N 33°28' E 128°31'1 0.9
2015-Jun-04 09:32N 33°28' E 128°32'5 0.3
2015-Jun-03 16:32N 33°33' E 128°34'0 0.4
2015-Jun-03 15:31N 33°33' E 128°35'0 0.4
2015-Jun-03 14:32N 33°33' E 128°35'1 0.5
2015-Jun-03 13:32N 33°33' E 128°36'  
2015-May-28 10:33N 38°50' E 121°47'  

Dump ship's entire track history